KHRO/HRO METAR and TAF weather

Enter ICAO airport designator
Station Type Date Time Source
KHRO METAR 2020/01/24 20:53 UTC NOAA

KHRO 242053Z AUTO 29011G16KT 8SM OVC007 00/M02 A2998 RMK AO2 SLP161 T00001017 53002


Station Type Date Time Source
KHRO Decoded METAR 2020/01/24 20:53 UTC NOAA

HARRISON BOONE COUNTY AIRPORT , AR, United States (KHRO) 36-16N 093-09W 417M
Jan 24, 2020 - 03:53 PM EST / 2020.01.24 2053 UTC
Wind: from the WNW (290 degrees) at 13 MPH (11 KT) gusting to 18 MPH (16 KT):0
Visibility: 8 mile(s):0
Sky conditions: overcast
Temperature: 32.0 F (0.0 C)
Windchill: 23 F (-5 C):1
Dew Point: 28.9 F (-1.7 C)
Relative Humidity: 88%
Pressure (altimeter): 29.98 in. Hg (1015 hPa)
Pressure tendency: 0.01 inches (0.2 hPa) higher than three hours ago
ob: KHRO 242053Z AUTO 29011G16KT 8SM OVC007 00/M02 A2998 RMK AO2 SLP161 T00001017 53002
cycle: 21

Station Type Date Time Source
KHRO TAF 2020/01/24 21:04 UTC NOAA

TAF
AMD KHRO 242102Z 2421/2518 30010G16KT P6SM BKN008
FM250000 29010KT P6SM OVC025
FM250600 28005KT P6SM OVC050
FM251500 27005KT P6SM SCT250

Example: see airport list